sensor_id;sensor_type;location;lat;lon;timestamp;temperature;humidity
17452;DHT22;8843;48.838;9.324;2023-04-15T00:01:27;11.60;70.00
17452;DHT22;8843;48.838;9.324;2023-04-15T00:03:54;11.50;70.00
17452;DHT22;8843;48.838;9.324;2023-04-15T00:06:22;11.50;69.90
17452;DHT22;8843;48.838;9.324;2023-04-15T00:08:49;11.50;69.90
17452;DHT22;8843;48.838;9.324;2023-04-15T00:11:16;11.50;70.00
17452;DHT22;8843;48.838;9.324;2023-04-15T00:13:45;11.50;70.00
17452;DHT22;8843;48.838;9.324;2023-04-15T00:16:13;11.50;69.90
17452;DHT22;8843;48.838;9.324;2023-04-15T00:18:40;11.50;70.00
17452;DHT22;8843;48.838;9.324;2023-04-15T00:21:07;11.50;70.00
17452;DHT22;8843;48.838;9.324;2023-04-15T00:23:34;11.50;70.00
17452;DHT22;8843;48.838;9.324;2023-04-15T00:26:01;11.50;70.00
17452;DHT22;8843;48.838;9.324;2023-04-15T00:28:28;11.50;69.90
17452;DHT22;8843;48.838;9.324;2023-04-15T00:30:56;11.50;70.00
17452;DHT22;8843;48.838;9.324;2023-04-15T00:33:25;11.50;69.90
17452;DHT22;8843;48.838;9.324;2023-04-15T00:35:52;11.50;70.00
17452;DHT22;8843;48.838;9.324;2023-04-15T00:38:18;11.50;70.10
17452;DHT22;8843;48.838;9.324;2023-04-15T00:40:45;11.50;69.90
17452;DHT22;8843;48.838;9.324;2023-04-15T00:43:12;11.50;69.90
17452;DHT22;8843;48.838;9.324;2023-04-15T00:45:39;11.50;70.00
17452;DHT22;8843;48.838;9.324;2023-04-15T00:48:06;11.50;69.80
17452;DHT22;8843;48.838;9.324;2023-04-15T00:50:35;11.50;69.90
17452;DHT22;8843;48.838;9.324;2023-04-15T00:53:02;11.50;70.00
17452;DHT22;8843;48.838;9.324;2023-04-15T00:55:29;11.50;69.90
17452;DHT22;8843;48.838;9.324;2023-04-15T00:57:56;11.50;70.00
17452;DHT22;8843;48.838;9.324;2023-04-15T01:00:23;11.50;69.90
17452;DHT22;8843;48.838;9.324;2023-04-15T01:02:50;11.40;69.80
17452;DHT22;8843;48.838;9.324;2023-04-15T01:05:17;11.40;69.80
17452;DHT22;8843;48.838;9.324;2023-04-15T01:07:46;11.40;69.80
17452;DHT22;8843;48.838;9.324;2023-04-15T01:10:13;11.40;69.90
17452;DHT22;8843;48.838;9.324;2023-04-15T01:12:40;11.40;69.80
17452;DHT22;8843;48.838;9.324;2023-04-15T01:15:08;11.40;69.80
17452;DHT22;8843;48.838;9.324;2023-04-15T01:17:36;11.40;69.80
17452;DHT22;8843;48.838;9.324;2023-04-15T01:20:03;11.40;69.90
17452;DHT22;8843;48.838;9.324;2023-04-15T01:22:32;11.40;69.80
17452;DHT22;8843;48.838;9.324;2023-04-15T01:25:05;11.40;69.80
17452;DHT22;8843;48.838;9.324;2023-04-15T01:27:34;11.40;69.80
17452;DHT22;8843;48.838;9.324;2023-04-15T01:30:03;11.40;69.90
17452;DHT22;8843;48.838;9.324;2023-04-15T01:32:31;11.40;69.80
17452;DHT22;8843;48.838;9.324;2023-04-15T01:34:57;11.40;69.80
17452;DHT22;8843;48.838;9.324;2023-04-15T01:37:25;11.40;69.80
17452;DHT22;8843;48.838;9.324;2023-04-15T01:39:52;11.40;69.80
17452;DHT22;8843;48.838;9.324;2023-04-15T01:42:20;11.40;69.80
17452;DHT22;8843;48.838;9.324;2023-04-15T01:44:48;11.40;69.80
17452;DHT22;8843;48.838;9.324;2023-04-15T01:47:15;11.40;69.80
17452;DHT22;8843;48.838;9.324;2023-04-15T01:49:42;11.40;69.80
17452;DHT22;8843;48.838;9.324;2023-04-15T01:52:09;11.30;69.70
17452;DHT22;8843;48.838;9.324;2023-04-15T01:54:36;11.30;69.70
17452;DHT22;8843;48.838;9.324;2023-04-15T01:57:03;11.30;69.70
17452;DHT22;8843;48.838;9.324;2023-04-15T01:59:30;11.30;69.80
17452;DHT22;8843;48.838;9.324;2023-04-15T02:01:59;11.30;69.70
17452;DHT22;8843;48.838;9.324;2023-04-15T02:04:25;11.30;69.70
17452;DHT22;8843;48.838;9.324;2023-04-15T02:06:52;11.30;69.80
17452;DHT22;8843;48.838;9.324;2023-04-15T02:09:20;11.30;69.80
17452;DHT22;8843;48.838;9.324;2023-04-15T02:11:47;11.30;69.80
17452;DHT22;8843;48.838;9.324;2023-04-15T02:14:13;11.30;69.80
17452;DHT22;8843;48.838;9.324;2023-04-15T02:16:40;11.30;69.70
17452;DHT22;8843;48.838;9.324;2023-04-15T02:19:08;11.30;70.30
17452;DHT22;8843;48.838;9.324;2023-04-15T02:21:35;11.30;69.70
17452;DHT22;8843;48.838;9.324;2023-04-15T02:24:03;11.30;69.80
17452;DHT22;8843;48.838;9.324;2023-04-15T02:26:29;11.30;69.80
17452;DHT22;8843;48.838;9.324;2023-04-15T02:28:57;11.30;69.80
17452;DHT22;8843;48.838;9.324;2023-04-15T02:41:32;11.20;69.70
17452;DHT22;8843;48.838;9.324;2023-04-15T02:43:58;11.20;70.50
17452;DHT22;8843;48.838;9.324;2023-04-15T02:46:25;11.20;69.60
17452;DHT22;8843;48.838;9.324;2023-04-15T02:48:52;11.20;69.80
17452;DHT22;8843;48.838;9.324;2023-04-15T02:51:20;11.20;69.70
17452;DHT22;8843;48.838;9.324;2023-04-15T02:53:48;11.20;69.70
17452;DHT22;8843;48.838;9.324;2023-04-15T02:56:15;11.20;69.70
17452;DHT22;8843;48.838;9.324;2023-04-15T02:58:45;11.20;69.70
17452;DHT22;8843;48.838;9.324;2023-04-15T03:01:15;11.20;69.70
17452;DHT22;8843;48.838;9.324;2023-04-15T03:03:41;11.20;69.80
17452;DHT22;8843;48.838;9.324;2023-04-15T03:06:08;11.20;69.70
17452;DHT22;8843;48.838;9.324;2023-04-15T03:08:35;11.20;69.70
17452;DHT22;8843;48.838;9.324;2023-04-15T03:11:02;11.20;69.60
17452;DHT22;8843;48.838;9.324;2023-04-15T03:13:29;11.20;69.70
17452;DHT22;8843;48.838;9.324;2023-04-15T03:15:58;11.20;69.70
17452;DHT22;8843;48.838;9.324;2023-04-15T03:18:25;11.10;70.40
17452;DHT22;8843;48.838;9.324;2023-04-15T03:20:51;11.10;69.60
17452;DHT22;8843;48.838;9.324;2023-04-15T03:23:18;11.10;69.60
17452;DHT22;8843;48.838;9.324;2023-04-15T03:25:45;11.10;69.60
17452;DHT22;8843;48.838;9.324;2023-04-15T03:28:12;11.10;69.60
17452;DHT22;8843;48.838;9.324;2023-04-15T03:30:39;11.10;69.60
17452;DHT22;8843;48.838;9.324;2023-04-15T03:33:07;11.10;69.60
17452;DHT22;8843;48.838;9.324;2023-04-15T03:35:34;11.10;69.60
17452;DHT22;8843;48.838;9.324;2023-04-15T03:38:01;11.10;69.60
17452;DHT22;8843;48.838;9.324;2023-04-15T03:40:28;11.10;69.60
17452;DHT22;8843;48.838;9.324;2023-04-15T03:42:55;11.10;70.40
17452;DHT22;8843;48.838;9.324;2023-04-15T03:45:22;11.10;69.60
17452;DHT22;8843;48.838;9.324;2023-04-15T03:47:48;11.10;69.60
17452;DHT22;8843;48.838;9.324;2023-04-15T03:50:17;11.10;69.60
17452;DHT22;8843;48.838;9.324;2023-04-15T03:52:44;11.10;69.70
17452;DHT22;8843;48.838;9.324;2023-04-15T03:55:11;11.10;69.60
17452;DHT22;8843;48.838;9.324;2023-04-15T03:57:39;11.10;69.70
17452;DHT22;8843;48.838;9.324;2023-04-15T04:00:08;11.10;69.60
17452;DHT22;8843;48.838;9.324;2023-04-15T04:02:35;11.00;69.50
17452;DHT22;8843;48.838;9.324;2023-04-15T04:05:02;11.00;69.50
17452;DHT22;8843;48.838;9.324;2023-04-15T04:07:30;11.10;69.70
17452;DHT22;8843;48.838;9.324;2023-04-15T04:09:57;11.00;69.60
17452;DHT22;8843;48.838;9.324;2023-04-15T04:12:24;11.00;69.60
17452;DHT22;8843;48.838;9.324;2023-04-15T04:14:51;11.00;69.60
17452;DHT22;8843;48.838;9.324;2023-04-15T04:17:17;11.00;69.60
17452;DHT22;8843;48.838;9.324;2023-04-15T04:19:45;11.10;69.70
17452;DHT22;8843;48.838;9.324;2023-04-15T04:22:12;11.00;70.30
17452;DHT22;8843;48.838;9.324;2023-04-15T04:24:40;11.00;69.60
17452;DHT22;8843;48.838;9.324;2023-04-15T04:27:07;11.00;69.60
17452;DHT22;8843;48.838;9.324;2023-04-15T04:29:33;11.00;69.60
17452;DHT22;8843;48.838;9.324;2023-04-15T04:32:00;11.00;70.40
17452;DHT22;8843;48.838;9.324;2023-04-15T04:34:27;11.00;69.60
17452;DHT22;8843;48.838;9.324;2023-04-15T04:36:54;11.00;69.60
17452;DHT22;8843;48.838;9.324;2023-04-15T04:39:21;11.00;69.60
17452;DHT22;8843;48.838;9.324;2023-04-15T04:41:49;11.00;69.60
17452;DHT22;8843;48.838;9.324;2023-04-15T04:44:16;11.00;69.60
17452;DHT22;8843;48.838;9.324;2023-04-15T04:46:43;11.00;70.00
17452;DHT22;8843;48.838;9.324;2023-04-15T04:49:10;11.00;69.70
17452;DHT22;8843;48.838;9.324;2023-04-15T04:51:37;11.00;69.70
17452;DHT22;8843;48.838;9.324;2023-04-15T04:54:04;11.00;69.70
17452;DHT22;8843;48.838;9.324;2023-04-15T04:56:31;10.90;69.50
17452;DHT22;8843;48.838;9.324;2023-04-15T04:59:00;11.00;69.70
17452;DHT22;8843;48.838;9.324;2023-04-15T05:01:27;10.90;69.50
17452;DHT22;8843;48.838;9.324;2023-04-15T05:03:54;11.00;69.70
17452;DHT22;8843;48.838;9.324;2023-04-15T05:06:21;10.90;69.70
17452;DHT22;8843;48.838;9.324;2023-04-15T05:08:48;10.90;69.60
17452;DHT22;8843;48.838;9.324;2023-04-15T05:11:15;10.90;69.60
17452;DHT22;8843;48.838;9.324;2023-04-15T05:13:41;10.90;69.50
17452;DHT22;8843;48.838;9.324;2023-04-15T05:16:10;10.90;69.60
17452;DHT22;8843;48.838;9.324;2023-04-15T05:18:37;10.90;69.60
17452;DHT22;8843;48.838;9.324;2023-04-15T05:21:04;10.90;69.60
17452;DHT22;8843;48.838;9.324;2023-04-15T05:23:31;10.90;69.60
17452;DHT22;8843;48.838;9.324;2023-04-15T05:25:58;10.90;69.60
17452;DHT22;8843;48.838;9.324;2023-04-15T05:28:25;10.40;66.90
17452;DHT22;8843;48.838;9.324;2023-04-15T05:30:52;10.90;70.90
17452;DHT22;8843;48.838;9.324;2023-04-15T05:33:20;10.80;71.30
17452;DHT22;8843;48.838;9.324;2023-04-15T05:35:47;10.80;71.40
17452;DHT22;8843;48.838;9.324;2023-04-15T05:38:14;10.80;70.20
17452;DHT22;8843;48.838;9.324;2023-04-15T05:40:41;10.80;69.90
17452;DHT22;8843;48.838;9.324;2023-04-15T05:43:08;10.80;69.40
17452;DHT22;8843;48.838;9.324;2023-04-15T05:45:35;10.80;69.30
17452;DHT22;8843;48.838;9.324;2023-04-15T05:48:02;10.80;69.20
17452;DHT22;8843;48.838;9.324;2023-04-15T05:50:30;10.80;69.20
17452;DHT22;8843;48.838;9.324;2023-04-15T05:52:57;10.70;75.10
17452;DHT22;8843;48.838;9.324;2023-04-15T05:55:24;11.00;72.00
17452;DHT22;8843;48.838;9.324;2023-04-15T05:57:50;10.90;70.10
17452;DHT22;8843;48.838;9.324;2023-04-15T06:00:18;10.70;69.00
17452;DHT22;8843;48.838;9.324;2023-04-15T06:02:45;10.20;74.90
17452;DHT22;8843;48.838;9.324;2023-04-15T06:05:13;10.60;73.80
17452;DHT22;8843;48.838;9.324;2023-04-15T06:07:41;10.70;71.20
17452;DHT22;8843;48.838;9.324;2023-04-15T06:10:09;10.70;71.10
17452;DHT22;8843;48.838;9.324;2023-04-15T06:12:36;10.70;70.10
17452;DHT22;8843;48.838;9.324;2023-04-15T06:15:03;10.70;70.10
17452;DHT22;8843;48.838;9.324;2023-04-15T06:17:31;10.70;70.10
17452;DHT22;8843;48.838;9.324;2023-04-15T06:19:58;9.70;65.10
17452;DHT22;8843;48.838;9.324;2023-04-15T06:22:24;9.00;66.90
17452;DHT22;8843;48.838;9.324;2023-04-15T06:24:53;8.80;68.10
17452;DHT22;8843;48.838;9.324;2023-04-15T06:27:20;8.60;69.40
17452;DHT22;8843;48.838;9.324;2023-04-15T06:29:47;8.50;69.30
17452;DHT22;8843;48.838;9.324;2023-04-15T06:32:14;8.50;69.60
17452;DHT22;8843;48.838;9.324;2023-04-15T06:34:41;8.40;70.00
17452;DHT22;8843;48.838;9.324;2023-04-15T06:37:08;8.40;70.20
17452;DHT22;8843;48.838;9.324;2023-04-15T06:39:35;8.30;71.10
17452;DHT22;8843;48.838;9.324;2023-04-15T06:42:04;8.30;70.40
17452;DHT22;8843;48.838;9.324;2023-04-15T06:44:31;8.30;70.40
17452;DHT22;8843;48.838;9.324;2023-04-15T06:46:58;8.30;71.40
17452;DHT22;8843;48.838;9.324;2023-04-15T06:49:25;8.30;70.80
17452;DHT22;8843;48.838;9.324;2023-04-15T06:51:51;8.50;74.40
17452;DHT22;8843;48.838;9.324;2023-04-15T06:54:18;8.50;70.90
17452;DHT22;8843;48.838;9.324;2023-04-15T06:56:45;8.20;72.20
17452;DHT22;8843;48.838;9.324;2023-04-15T06:59:14;8.10;72.60
17452;DHT22;8843;48.838;9.324;2023-04-15T07:01:41;8.10;72.90
17452;DHT22;8843;48.838;9.324;2023-04-15T07:04:08;8.00;73.00
17452;DHT22;8843;48.838;9.324;2023-04-15T07:06:35;8.00;74.00
17452;DHT22;8843;48.838;9.324;2023-04-15T07:09:02;8.00;73.10
17452;DHT22;8843;48.838;9.324;2023-04-15T07:11:30;8.00;73.20
17452;DHT22;8843;48.838;9.324;2023-04-15T07:13:57;8.00;73.60
17452;DHT22;8843;48.838;9.324;2023-04-15T07:16:25;8.00;73.70
17452;DHT22;8843;48.838;9.324;2023-04-15T07:18:52;8.00;73.80
17452;DHT22;8843;48.838;9.324;2023-04-15T07:21:20;8.00;74.00
17452;DHT22;8843;48.838;9.324;2023-04-15T07:23:47;8.10;75.00
17452;DHT22;8843;48.838;9.324;2023-04-15T07:26:14;8.20;74.80
17452;DHT22;8843;48.838;9.324;2023-04-15T07:28:40;8.70;76.90
17452;DHT22;8843;48.838;9.324;2023-04-15T07:31:07;9.30;75.30
17452;DHT22;8843;48.838;9.324;2023-04-15T07:33:36;9.60;73.80
17452;DHT22;8843;48.838;9.324;2023-04-15T07:36:03;9.80;72.90
17452;DHT22;8843;48.838;9.324;2023-04-15T07:38:30;10.00;71.30
17452;DHT22;8843;48.838;9.324;2023-04-15T07:40:56;10.10;71.00
17452;DHT22;8843;48.838;9.324;2023-04-15T07:43:23;10.20;70.80
17452;DHT22;8843;48.838;9.324;2023-04-15T07:45:50;10.20;70.60
17452;DHT22;8843;48.838;9.324;2023-04-15T07:48:17;10.20;70.40
17452;DHT22;8843;48.838;9.324;2023-04-15T07:50:45;10.20;70.30
17452;DHT22;8843;48.838;9.324;2023-04-15T07:53:12;10.30;70.40
17452;DHT22;8843;48.838;9.324;2023-04-15T07:55:39;10.30;70.40
17452;DHT22;8843;48.838;9.324;2023-04-15T07:58:06;10.30;70.40
17452;DHT22;8843;48.838;9.324;2023-04-15T08:00:33;10.30;71.10
17452;DHT22;8843;48.838;9.324;2023-04-15T08:03:00;10.30;70.30
17452;DHT22;8843;48.838;9.324;2023-04-15T08:05:27;10.30;69.80
17452;DHT22;8843;48.838;9.324;2023-04-15T08:07:56;9.90;71.90
17452;DHT22;8843;48.838;9.324;2023-04-15T08:10:23;9.70;72.80
17452;DHT22;8843;48.838;9.324;2023-04-15T08:12:50;9.80;73.10
17452;DHT22;8843;48.838;9.324;2023-04-15T08:15:19;9.80;73.80
17452;DHT22;8843;48.838;9.324;2023-04-15T08:17:46;9.90;73.20
17452;DHT22;8843;48.838;9.324;2023-04-15T08:20:13;10.00;72.30
17452;DHT22;8843;48.838;9.324;2023-04-15T08:22:40;10.10;72.50
17452;DHT22;8843;48.838;9.324;2023-04-15T08:25:08;10.10;71.70
17452;DHT22;8843;48.838;9.324;2023-04-15T08:27:35;10.20;71.90
17452;DHT22;8843;48.838;9.324;2023-04-15T08:30:03;10.20;71.20
17452;DHT22;8843;48.838;9.324;2023-04-15T08:32:30;10.30;71.30
17452;DHT22;8843;48.838;9.324;2023-04-15T08:34:57;10.40;71.60
17452;DHT22;8843;48.838;9.324;2023-04-15T08:37:25;10.40;70.30
17452;DHT22;8843;48.838;9.324;2023-04-15T08:39:52;10.50;70.50
17452;DHT22;8843;48.838;9.324;2023-04-15T08:42:29;10.50;70.50
17452;DHT22;8843;48.838;9.324;2023-04-15T08:44:58;10.50;70.10
17452;DHT22;8843;48.838;9.324;2023-04-15T08:47:29;10.60;70.60
17452;DHT22;8843;48.838;9.324;2023-04-15T08:49:57;10.80;70.10
17452;DHT22;8843;48.838;9.324;2023-04-15T08:52:25;10.90;70.50
17452;DHT22;8843;48.838;9.324;2023-04-15T08:54:56;10.90;70.10
17452;DHT22;8843;48.838;9.324;2023-04-15T08:57:26;11.00;70.80
17452;DHT22;8843;48.838;9.324;2023-04-15T08:59:55;11.00;70.50
17452;DHT22;8843;48.838;9.324;2023-04-15T09:02:23;11.00;69.90
17452;DHT22;8843;48.838;9.324;2023-04-15T09:04:51;11.10;70.00
17452;DHT22;8843;48.838;9.324;2023-04-15T09:07:18;11.20;70.00
17452;DHT22;8843;48.838;9.324;2023-04-15T09:09:46;11.30;71.50
17452;DHT22;8843;48.838;9.324;2023-04-15T09:12:14;11.40;71.90
17452;DHT22;8843;48.838;9.324;2023-04-15T09:14:44;11.60;71.70
17452;DHT22;8843;48.838;9.324;2023-04-15T09:17:11;11.70;70.80
17452;DHT22;8843;48.838;9.324;2023-04-15T09:19:39;11.70;70.80
17452;DHT22;8843;48.838;9.324;2023-04-15T09:22:06;12.00;70.60
17452;DHT22;8843;48.838;9.324;2023-04-15T09:24:36;12.00;69.60
17452;DHT22;8843;48.838;9.324;2023-04-15T09:27:04;12.00;68.80
17452;DHT22;8843;48.838;9.324;2023-04-15T09:29:31;12.00;69.30
17452;DHT22;8843;48.838;9.324;2023-04-15T09:32:10;12.00;68.40
17452;DHT22;8843;48.838;9.324;2023-04-15T09:34:37;12.20;69.80
17452;DHT22;8843;48.838;9.324;2023-04-15T09:37:04;12.20;69.40
17452;DHT22;8843;48.838;9.324;2023-04-15T09:39:47;12.00;69.30
17452;DHT22;8843;48.838;9.324;2023-04-15T09:42:15;11.90;69.60
17452;DHT22;8843;48.838;9.324;2023-04-15T09:44:48;11.90;70.20
17452;DHT22;8843;48.838;9.324;2023-04-15T09:47:30;12.10;70.10
17452;DHT22;8843;48.838;9.324;2023-04-15T09:49:57;12.40;71.00
17452;DHT22;8843;48.838;9.324;2023-04-15T09:52:24;12.40;69.50
17452;DHT22;8843;48.838;9.324;2023-04-15T09:54:55;12.50;68.60
17452;DHT22;8843;48.838;9.324;2023-04-15T09:57:24;12.50;69.10
17452;DHT22;8843;48.838;9.324;2023-04-15T09:59:51;12.60;69.90
17452;DHT22;8843;48.838;9.324;2023-04-15T10:02:19;12.70;71.10
17452;DHT22;8843;48.838;9.324;2023-04-15T10:04:48;12.90;70.40
17452;DHT22;8843;48.838;9.324;2023-04-15T10:07:16;13.10;71.00
17452;DHT22;8843;48.838;9.324;2023-04-15T10:09:45;13.40;71.40
17452;DHT22;8843;48.838;9.324;2023-04-15T10:12:12;13.70;70.80
17452;DHT22;8843;48.838;9.324;2023-04-15T10:14:41;13.80;69.10
17452;DHT22;8843;48.838;9.324;2023-04-15T10:17:10;14.00;69.20
17452;DHT22;8843;48.838;9.324;2023-04-15T10:19:37;14.20;67.20
17452;DHT22;8843;48.838;9.324;2023-04-15T10:22:06;14.20;66.80
17452;DHT22;8843;48.838;9.324;2023-04-15T10:24:34;14.20;65.80
17452;DHT22;8843;48.838;9.324;2023-04-15T10:27:02;14.20;64.80
17452;DHT22;8843;48.838;9.324;2023-04-15T10:29:30;14.20;65.20
17452;DHT22;8843;48.838;9.324;2023-04-15T10:31:58;14.30;65.30
17452;DHT22;8843;48.838;9.324;2023-04-15T10:34:26;14.20;65.00
17452;DHT22;8843;48.838;9.324;2023-04-15T10:36:54;14.30;65.90
17452;DHT22;8843;48.838;9.324;2023-04-15T10:39:42;14.60;66.80
17452;DHT22;8843;48.838;9.324;2023-04-15T10:42:11;14.70;66.00
17452;DHT22;8843;48.838;9.324;2023-04-15T10:44:38;15.00;66.80
17452;DHT22;8843;48.838;9.324;2023-04-15T10:47:11;15.20;65.20
17452;DHT22;8843;48.838;9.324;2023-04-15T10:49:46;15.30;65.80
17452;DHT22;8843;48.838;9.324;2023-04-15T10:52:14;15.40;65.10
17452;DHT22;8843;48.838;9.324;2023-04-15T10:54:43;15.50;65.10
17452;DHT22;8843;48.838;9.324;2023-04-15T10:57:16;15.50;63.50
17452;DHT22;8843;48.838;9.324;2023-04-15T10:59:59;15.60;62.60
17452;DHT22;8843;48.838;9.324;2023-04-15T11:02:38;15.60;61.90
17452;DHT22;8843;48.838;9.324;2023-04-15T11:05:06;15.50;62.30
17452;DHT22;8843;48.838;9.324;2023-04-15T11:07:34;15.50;60.50
17452;DHT22;8843;48.838;9.324;2023-04-15T11:10:03;15.40;62.10
17452;DHT22;8843;48.838;9.324;2023-04-15T11:12:35;15.50;61.50
17452;DHT22;8843;48.838;9.324;2023-04-15T11:15:27;15.60;61.50
17452;DHT22;8843;48.838;9.324;2023-04-15T11:17:55;15.50;60.30
17452;DHT22;8843;48.838;9.324;2023-04-15T11:20:22;15.30;60.80
17452;DHT22;8843;48.838;9.324;2023-04-15T11:22:49;15.20;60.70
17452;DHT22;8843;48.838;9.324;2023-04-15T11:25:25;15.00;60.90
17452;DHT22;8843;48.838;9.324;2023-04-15T11:27:53;14.90;61.50
17452;DHT22;8843;48.838;9.324;2023-04-15T11:30:22;14.70;61.80
17452;DHT22;8843;48.838;9.324;2023-04-15T11:32:50;14.30;61.90
17452;DHT22;8843;48.838;9.324;2023-04-15T11:35:17;14.50;61.80
17452;DHT22;8843;48.838;9.324;2023-04-15T11:37:45;14.90;62.00
17452;DHT22;8843;48.838;9.324;2023-04-15T11:40:13;15.00;60.40
17452;DHT22;8843;48.838;9.324;2023-04-15T11:42:43;14.90;60.40
17452;DHT22;8843;48.838;9.324;2023-04-15T11:45:13;15.00;59.70
17452;DHT22;8843;48.838;9.324;2023-04-15T11:47:41;14.90;59.90
17452;DHT22;8843;48.838;9.324;2023-04-15T11:50:15;14.90;59.70
17452;DHT22;8843;48.838;9.324;2023-04-15T11:52:51;15.00;60.00
17452;DHT22;8843;48.838;9.324;2023-04-15T11:55:19;14.90;60.60
17452;DHT22;8843;48.838;9.324;2023-04-15T11:57:47;14.90;60.50
17452;DHT22;8843;48.838;9.324;2023-04-15T12:00:14;15.00;60.00
17452;DHT22;8843;48.838;9.324;2023-04-15T12:02:42;15.00;60.40
17452;DHT22;8843;48.838;9.324;2023-04-15T12:05:09;14.90;61.20
17452;DHT22;8843;48.838;9.324;2023-04-15T12:07:58;14.80;60.40
17452;DHT22;8843;48.838;9.324;2023-04-15T12:10:25;14.60;59.80
17452;DHT22;8843;48.838;9.324;2023-04-15T12:12:53;14.40;59.30
17452;DHT22;8843;48.838;9.324;2023-04-15T12:15:21;14.10;59.50
17452;DHT22;8843;48.838;9.324;2023-04-15T12:17:53;14.10;59.50
17452;DHT22;8843;48.838;9.324;2023-04-15T12:20:24;14.20;59.20
17452;DHT22;8843;48.838;9.324;2023-04-15T12:22:51;14.10;59.40
17452;DHT22;8843;48.838;9.324;2023-04-15T12:25:18;14.00;59.50
17452;DHT22;8843;48.838;9.324;2023-04-15T12:27:51;14.00;60.00
17452;DHT22;8843;48.838;9.324;2023-04-15T12:30:19;13.70;61.30
17452;DHT22;8843;48.838;9.324;2023-04-15T12:32:46;13.40;62.30
17452;DHT22;8843;48.838;9.324;2023-04-15T12:35:13;13.30;64.10
17452;DHT22;8843;48.838;9.324;2023-04-15T12:37:40;13.10;64.90
17452;DHT22;8843;48.838;9.324;2023-04-15T12:40:07;13.00;65.30
17452;DHT22;8843;48.838;9.324;2023-04-15T12:42:34;12.90;65.70
17452;DHT22;8843;48.838;9.324;2023-04-15T12:45:01;12.90;65.60
17452;DHT22;8843;48.838;9.324;2023-04-15T12:47:30;12.80;66.30
17452;DHT22;8843;48.838;9.324;2023-04-15T12:49:57;12.70;66.80
17452;DHT22;8843;48.838;9.324;2023-04-15T12:52:23;12.70;66.80
17452;DHT22;8843;48.838;9.324;2023-04-15T12:54:50;12.60;66.90
17452;DHT22;8843;48.838;9.324;2023-04-15T12:57:18;12.80;72.90
17452;DHT22;8843;48.838;9.324;2023-04-15T12:59:45;13.40;70.90
17452;DHT22;8843;48.838;9.324;2023-04-15T13:02:12;13.80;68.40
17452;DHT22;8843;48.838;9.324;2023-04-15T13:04:41;13.90;67.60
17452;DHT22;8843;48.838;9.324;2023-04-15T13:07:09;13.70;63.30
17452;DHT22;8843;48.838;9.324;2023-04-15T13:09:38;13.30;63.10
17452;DHT22;8843;48.838;9.324;2023-04-15T13:12:05;13.00;61.30
17452;DHT22;8843;48.838;9.324;2023-04-15T13:14:32;13.00;63.40
17452;DHT22;8843;48.838;9.324;2023-04-15T13:16:59;12.90;62.80
17452;DHT22;8843;48.838;9.324;2023-04-15T13:19:30;12.80;62.20
17452;DHT22;8843;48.838;9.324;2023-04-15T13:21:58;12.70;62.10
17452;DHT22;8843;48.838;9.324;2023-04-15T13:24:25;12.70;62.10
17452;DHT22;8843;48.838;9.324;2023-04-15T13:26:53;12.60;62.80
17452;DHT22;8843;48.838;9.324;2023-04-15T13:29:20;12.70;60.40
17452;DHT22;8843;48.838;9.324;2023-04-15T13:31:47;12.80;58.50
17452;DHT22;8843;48.838;9.324;2023-04-15T13:34:17;13.30;69.40
17452;DHT22;8843;48.838;9.324;2023-04-15T13:36:44;13.40;62.20
17452;DHT22;8843;48.838;9.324;2023-04-15T13:39:12;13.10;59.20
17452;DHT22;8843;48.838;9.324;2023-04-15T13:41:39;12.90;59.40
17452;DHT22;8843;48.838;9.324;2023-04-15T13:44:06;12.90;59.30
17452;DHT22;8843;48.838;9.324;2023-04-15T13:46:33;12.90;59.50
17452;DHT22;8843;48.838;9.324;2023-04-15T13:49:00;12.90;61.00
17452;DHT22;8843;48.838;9.324;2023-04-15T13:51:27;12.90;58.70
17452;DHT22;8843;48.838;9.324;2023-04-15T13:53:53;12.80;57.50
17452;DHT22;8843;48.838;9.324;2023-04-15T13:56:22;12.80;57.10
17452;DHT22;8843;48.838;9.324;2023-04-15T13:58:51;12.80;56.80
17452;DHT22;8843;48.838;9.324;2023-04-15T14:01:19;12.70;56.40
17452;DHT22;8843;48.838;9.324;2023-04-15T14:03:46;12.70;57.10
17452;DHT22;8843;48.838;9.324;2023-04-15T14:06:13;12.70;55.60
17452;DHT22;8843;48.838;9.324;2023-04-15T14:08:39;12.70;55.60
17452;DHT22;8843;48.838;9.324;2023-04-15T14:11:06;12.70;56.00
17452;DHT22;8843;48.838;9.324;2023-04-15T14:13:35;12.60;55.40
17452;DHT22;8843;48.838;9.324;2023-04-15T14:16:02;12.60;55.80
17452;DHT22;8843;48.838;9.324;2023-04-15T14:18:29;12.60;55.80
17452;DHT22;8843;48.838;9.324;2023-04-15T14:20:56;12.60;55.90
17452;DHT22;8843;48.838;9.324;2023-04-15T14:23:23;12.50;55.80
17452;DHT22;8843;48.838;9.324;2023-04-15T14:25:50;12.50;55.50
17452;DHT22;8843;48.838;9.324;2023-04-15T14:28:17;12.50;56.00
17452;DHT22;8843;48.838;9.324;2023-04-15T14:30:45;12.50;55.90
17452;DHT22;8843;48.838;9.324;2023-04-15T14:33:12;12.40;55.70
17452;DHT22;8843;48.838;9.324;2023-04-15T14:35:39;12.40;56.00
17452;DHT22;8843;48.838;9.324;2023-04-15T14:38:06;12.40;56.00
17452;DHT22;8843;48.838;9.324;2023-04-15T14:40:35;12.40;56.30
17452;DHT22;8843;48.838;9.324;2023-04-15T14:43:02;12.30;56.20
17452;DHT22;8843;48.838;9.324;2023-04-15T14:45:29;12.20;56.20
17452;DHT22;8843;48.838;9.324;2023-04-15T14:47:58;12.20;57.00
17452;DHT22;8843;48.838;9.324;2023-04-15T14:50:25;12.20;57.20
17452;DHT22;8843;48.838;9.324;2023-04-15T14:52:52;12.20;57.00
17452;DHT22;8843;48.838;9.324;2023-04-15T14:55:18;12.20;57.20
17452;DHT22;8843;48.838;9.324;2023-04-15T14:57:45;12.20;57.30
17452;DHT22;8843;48.838;9.324;2023-04-15T15:00:13;12.20;57.50
17452;DHT22;8843;48.838;9.324;2023-04-15T15:02:40;12.10;57.70
17452;DHT22;8843;48.838;9.324;2023-04-15T15:05:10;12.10;57.90
17452;DHT22;8843;48.838;9.324;2023-04-15T15:07:37;12.10;58.20
17452;DHT22;8843;48.838;9.324;2023-04-15T15:10:05;12.10;58.20
17452;DHT22;8843;48.838;9.324;2023-04-15T15:12:33;12.10;59.60
17452;DHT22;8843;48.838;9.324;2023-04-15T15:15:02;12.10;59.10
17452;DHT22;8843;48.838;9.324;2023-04-15T15:17:28;12.00;58.90
17452;DHT22;8843;48.838;9.324;2023-04-15T15:19:56;12.00;59.30
17452;DHT22;8843;48.838;9.324;2023-04-15T15:22:24;12.00;58.80
17452;DHT22;8843;48.838;9.324;2023-04-15T15:24:51;12.00;59.10
17452;DHT22;8843;48.838;9.324;2023-04-15T15:27:18;11.90;59.30
17452;DHT22;8843;48.838;9.324;2023-04-15T15:29:45;11.90;59.70
17452;DHT22;8843;48.838;9.324;2023-04-15T15:32:12;11.90;60.60
17452;DHT22;8843;48.838;9.324;2023-04-15T15:34:38;11.90;60.40
17452;DHT22;8843;48.838;9.324;2023-04-15T15:37:05;11.80;61.70
17452;DHT22;8843;48.838;9.324;2023-04-15T15:39:34;11.80;61.70
17452;DHT22;8843;48.838;9.324;2023-04-15T15:42:01;12.00;68.20
17452;DHT22;8843;48.838;9.324;2023-04-15T15:44:28;12.30;66.80
17452;DHT22;8843;48.838;9.324;2023-04-15T15:46:55;12.30;63.60
17452;DHT22;8843;48.838;9.324;2023-04-15T15:49:22;12.10;63.70
17452;DHT22;8843;48.838;9.324;2023-04-15T15:51:49;12.00;64.40
17452;DHT22;8843;48.838;9.324;2023-04-15T15:54:16;11.90;64.80
17452;DHT22;8843;48.838;9.324;2023-04-15T15:56:45;11.80;64.70
17452;DHT22;8843;48.838;9.324;2023-04-15T15:59:12;11.80;66.10
17452;DHT22;8843;48.838;9.324;2023-04-15T16:01:38;11.70;66.00